Kunming, Yunnan

3:23 PM CST on September 27, 2016 (GMT +0800)
Wujiaba | | Change Station

Elev 6214 ft 25.00 °N, 102.74 °E | Updated 23 minutes ago

Thunderstorm
Thunderstorm
70 °F
Feels Like 70 °F
N
9
Wind Variable Wind from NNW

Today
High -- | Low -- °F
--% Chance of Precip.
Yesterday
High -- | Low -- °F
Precip. -- in
Pressure 30.15 in
Visibility 6.2 miles
Clouds Few 2300 ft
Scattered Clouds 2300 ft
Scattered Clouds 4000 ft
Dew Point 61 °F
Humidity 73%
Rainfall 0.00 in
Snow Depth Not available.
6:59 AM 7:00 PM
Waning Crescent, 13% visible
METAR ZPPP 270700Z 33004MPS 9999 TS FEW023CB SCT023 SCT040 21/16 Q1021 BECMG TL0800 NSW
Pressure 30.15 in
Visibility 6.2 miles
Clouds Few 2300 ft
Scattered Clouds 2300 ft
Scattered Clouds 4000 ft
Dew Point 61 °F
Humidity 73%
Rainfall 0.00 in
Snow Depth Not available.
6:59 AM 7:00 PM
Waning Crescent, 13% visible
METAR ZPPP 270700Z 33004MPS 9999 TS FEW023CB SCT023 SCT040 21/16 Q1021 BECMG TL0800 NSW

10-Day Weather Forecast

No radar image for this location.
×

Almanac

Astronomy

Sep. 27, 2016 Rise Set
Actual Time
Civil Twilight
Nautical Twilight
Astronomical Twilight
Moon
Length of Visible Light
Length of Day
Tomorrow will be .
, % of the Moon is Illuminated

Today's Extremes

Country Highs Country Lows

Community

WunderPhotos

Upload Photos

1,942,040 photos uploaded!

WunderBlog® & News

Nearby

Air Quality

  Air Quality AQ Index Pollutant
Not available.

Snow Depth

Station Depth Elevation

Earthquake Activity

City Distance Mag. Time & Date
Minimum magnitude displayed is 2.5.

Coastal Water Temperatures

Place Temperature

Stations

Nearby Weather Stations

Station Location Temp. Windchill Dew Point Humidity Wind Precip. Elev Updated Type